Pu Dun — XUUB9 — position and weather

sailwx.info

Track history (hours):
 
Tides and Currents Weather Stations Pressure Air Temp Water Temp Dewpoint Dewpoint Depression Visibility Wind Speed Wind Dir Waves Ship Positions

Pu Dun

Last reported at 2014-Sep-08 17:12 UTC. Time now 2014-Sep-22 04:16 UTC.
Position N 34°37' E 135°01'.
Warning: this ship's position is 13 days out of date.

Length 75 m; draft 5.1 m.

Type: Cargo ship. MMSI: 515213000.

Date/timePositionNaut miles runAvg speedWind from/ knotsBaromVisibWave heightAir tempDewpointWater temp
2014-Sep-08 17:12N 34°37' E 135°01'4 5.4
2014-Sep-08 16:32N 34°35' E 135°05'221 7.1
2014-Sep-07 09:31N 34°59' E 139°32'9 9.7
2014-Sep-07 08:33N 35°05' E 139°41'9 9.6
2014-Sep-07 07:33N 35°14' E 139°46'10 9.6
2014-Sep-07 06:30N 35°24' E 139°43'6 6.6
2014-Sep-07 05:33N 35°22' E 139°50'1 0.2
2014-Sep-06 22:29N 35°21' E 139°51'0 0.0
2014-Sep-06 20:29N 35°21' E 139°51'0 0.0
2014-Sep-06 19:20N 35°21' E 139°51'0 0.0
2014-Sep-06 13:29N 35°21' E 139°51'0 0.0
2014-Sep-06 03:29N 35°21' E 139°51'0 0.0
2014-Sep-06 00:17N 35°21' E 139°51'0 0.0
2014-Sep-05 20:29N 35°21' E 139°51'0 0.0
2014-Sep-05 19:12N 35°21' E 139°51'0 0.0
2014-Sep-05 18:32N 35°21' E 139°51'0 0.0
2014-Sep-05 14:27N 35°21' E 139°51'0 0.0
2014-Sep-05 13:23N 35°21' E 139°51'0 0.0
2014-Sep-05 11:33N 35°21' E 139°51'3 3.5
2014-Sep-05 10:33N 35°25' E 139°50'0 0.0
2014-Sep-05 09:33N 35°25' E 139°50'0 0.0
2014-Sep-05 08:33N 35°25' E 139°50'0 0.0
2014-Sep-05 07:33N 35°25' E 139°50'0 0.0
2014-Sep-05 06:33N 35°25' E 139°50'0 0.0
2014-Sep-05 05:33N 35°25' E 139°50'0 0.0
2014-Sep-05 04:33N 35°25' E 139°50'0 0.0
2014-Sep-05 03:33N 35°25' E 139°50'0 0.0
2014-Sep-05 02:33N 35°25' E 139°50'0 0.0
2014-Sep-05 01:33N 35°25' E 139°50'0 0.0
2014-Sep-05 00:33N 35°25' E 139°50'0 0.0
2014-Sep-04 23:33N 35°25' E 139°50'4 3.7
2014-Sep-04 22:33N 35°23' E 139°46'1010.4
2014-Sep-04 21:33N 35°13' E 139°47'1111.0
2014-Sep-04 20:33N 35°03' E 139°43'1311.9
2014-Sep-04 19:30N 34°55' E 139°30'  
2014-Aug-30 03:29N 34°59' E 139°32'1010.6
2014-Aug-30 02:33N 35°06' E 139°41'1111.4
2014-Aug-30 01:34N 35°16' E 139°45'9 8.8
2014-Aug-30 00:33N 35°25' E 139°46'6 5.0
2014-Aug-29 23:26N 35°21' E 139°51'0 0.0
2014-Aug-29 22:32N 35°21' E 139°51'0 0.0
2014-Aug-29 20:32N 35°21' E 139°51'0 0.0
2014-Aug-29 19:26N 35°21' E 139°51'0 0.0
2014-Aug-29 18:32N 35°21' E 139°51'0 0.0
2014-Aug-29 17:29N 35°21' E 139°51'  
Track history (hours):
 
Tides and Currents Weather Stations Pressure Air Temp Water Temp Dewpoint Dewpoint Depression Visibility Wind Speed Wind Dir Waves Ship Positions

Pu Dun

Last reported at 2014-Sep-08 17:12 UTC. Time now 2014-Sep-22 04:16 UTC.
Position N 34°37' E 135°01'.
Warning: this ship's position is 13 days out of date.

Length 75 m; draft 5.1 m.

Type: Cargo ship. MMSI: 515213000.

Date/timePositionNaut miles runAvg speedWind from/ knotsBaromVisibWave heightAir tempDewpointWater temp
2014-Sep-08 17:12N 34°37' E 135°01'4 5.4
2014-Sep-08 16:32N 34°35' E 135°05'221 7.1
2014-Sep-07 09:31N 34°59' E 139°32'9 9.7
2014-Sep-07 08:33N 35°05' E 139°41'9 9.6
2014-Sep-07 07:33N 35°14' E 139°46'10 9.6
2014-Sep-07 06:30N 35°24' E 139°43'6 6.6
2014-Sep-07 05:33N 35°22' E 139°50'1 0.2
2014-Sep-06 22:29N 35°21' E 139°51'0 0.0
2014-Sep-06 20:29N 35°21' E 139°51'0 0.0
2014-Sep-06 19:20N 35°21' E 139°51'0 0.0
2014-Sep-06 13:29N 35°21' E 139°51'0 0.0
2014-Sep-06 03:29N 35°21' E 139°51'0 0.0
2014-Sep-06 00:17N 35°21' E 139°51'0 0.0
2014-Sep-05 20:29N 35°21' E 139°51'0 0.0
2014-Sep-05 19:12N 35°21' E 139°51'0 0.0
2014-Sep-05 18:32N 35°21' E 139°51'0 0.0
2014-Sep-05 14:27N 35°21' E 139°51'0 0.0
2014-Sep-05 13:23N 35°21' E 139°51'0 0.0
2014-Sep-05 11:33N 35°21' E 139°51'3 3.5
2014-Sep-05 10:33N 35°25' E 139°50'0 0.0
2014-Sep-05 09:33N 35°25' E 139°50'0 0.0
2014-Sep-05 08:33N 35°25' E 139°50'0 0.0
2014-Sep-05 07:33N 35°25' E 139°50'0 0.0
2014-Sep-05 06:33N 35°25' E 139°50'0 0.0
2014-Sep-05 05:33N 35°25' E 139°50'0 0.0
2014-Sep-05 04:33N 35°25' E 139°50'0 0.0
2014-Sep-05 03:33N 35°25' E 139°50'0 0.0
2014-Sep-05 02:33N 35°25' E 139°50'0 0.0
2014-Sep-05 01:33N 35°25' E 139°50'0 0.0
2014-Sep-05 00:33N 35°25' E 139°50'0 0.0
2014-Sep-04 23:33N 35°25' E 139°50'4 3.7
2014-Sep-04 22:33N 35°23' E 139°46'1010.4
2014-Sep-04 21:33N 35°13' E 139°47'1111.0
2014-Sep-04 20:33N 35°03' E 139°43'1311.9
2014-Sep-04 19:30N 34°55' E 139°30'  
2014-Aug-30 03:29N 34°59' E 139°32'1010.6
2014-Aug-30 02:33N 35°06' E 139°41'1111.4
2014-Aug-30 01:34N 35°16' E 139°45'9 8.8
2014-Aug-30 00:33N 35°25' E 139°46'6 5.0
2014-Aug-29 23:26N 35°21' E 139°51'0 0.0
2014-Aug-29 22:32N 35°21' E 139°51'0 0.0
2014-Aug-29 20:32N 35°21' E 139°51'0 0.0
2014-Aug-29 19:26N 35°21' E 139°51'0 0.0
2014-Aug-29 18:32N 35°21' E 139°51'0 0.0
2014-Aug-29 17:29N 35°21' E 139°51'  

Dump ship's entire track history